Latest Weather Observations for Hobart Airport

IDT60901

Issued at 9:55 am EDT Friday 28 November 2014 (issued every 10 minutes, with the page automatically refreshed every 10 minutes)

About weather observations | Map of Hobart area stations | Latest observations for Hobart area | Other Formats
Station Details ID: 094008 Name: HOBART AIRPORT Lat: -42.83 Lon: 147.50 Height: 4.0 m
Data from the previous 72 hours. | See also: Recent months at Hobart Airport
Date/Time
EDT
Tmp

°C
App
Tmp
°C
Dew
Point
°C
Rel
Hum
%
Delta-T

°C
Wind Press
QNH
hPa
Press
MSL
hPa
Rain
since
9 am
mm
Dir
 
Spd
km/h
Gust
km/h
Spd
kts
Gust
kts
28/09:30am 13.6 9.8 1.5 43 5.2 WNW 11 15 6 8 1023.5 1023.5 0.0
28/09:00am 13.0 8.0 1.5 45 4.9 NNW 17 26 9 14 1023.8 1023.8 0.2
28/08:30am 12.7 8.1 1.4 46 4.8 WNW 15 24 8 13 1023.8 1023.8 0.2
28/08:00am 13.0 8.4 1.5 45 4.9 NW 15 19 8 10 1023.8 1023.8 0.2
28/07:30am 12.2 8.1 2.5 51 4.2 NW 13 17 7 9 1023.8 1023.8 0.2
28/07:00am 11.5 7.9 3.0 56 3.7 WNW 11 17 6 9 1023.6 1023.6 0.2
28/06:30am 11.4 7.7 4.2 61 3.2 NW 13 15 7 8 1023.6 1023.6 0.2
28/06:00am 10.9 8.2 5.7 70 2.4 NNE 9 13 5 7 1023.4 1023.4 0.2
28/05:30am 10.5 7.5 6.2 75 2.0 N 11 15 6 8 1023.4 1023.4 0.2
28/05:00am 10.7 8.6 5.9 72 2.2 N 6 7 3 4 1023.2 1023.2 0.2
28/04:30am 11.0 8.0 4.3 63 3.0 SW 9 11 5 6 1023.4 1023.4 0.2
28/04:00am 10.8 7.7 3.8 62 3.1 SSW 9 13 5 7 1023.1 1023.1 0.2
28/03:30am 10.9 7.8 3.6 60 3.2 SSW 9 15 5 8 1022.9 1022.9 0.2
28/03:00am 11.1 7.2 3.3 58 3.4 S 13 15 7 8 1023.1 1023.1 0.2
28/02:30am 11.1 7.6 3.6 60 3.3 S 11 15 6 8 1023.2 1023.2 0.2
28/02:00am 11.0 8.3 5.6 69 2.5 S 9 13 5 7 1023.4 1023.4 0.2
28/01:30am 11.3 9.6 5.7 68 2.6 WSW 4 7 2 4 1023.8 1023.8 0.2
28/01:00am 10.5 9.4 6.7 77 1.8 NW 2 4 1 2 1023.9 1023.9 0.2
28/12:30am 10.2 9.2 5.8 74 2.0 CALM 0 7 0 4 1024.1 1024.1 0.2
28/12:00am 10.2 8.8 5.3 71 2.2 SSW 2 6 1 3 1024.2 1024.2 0.2
 
Date/Time
EDT
Tmp

°C
App
Tmp
°C
Dew
Point
°C
Rel
Hum
%
Delta-T

°C
Wind Press
QNH
hPa
Press
MSL
hPa
Rain
since
9 am
mm
Dir
 
Spd
km/h
Gust
km/h
Spd
kts
Gust
kts
27/11:30pm 10.6 9.6 5.8 72 2.2 CALM 0 0 0 0 1024.4 1024.4 0.2
27/11:00pm 10.7 7.6 5.7 71 2.3 S 11 15 6 8 1024.4 1024.4 0.2
27/10:30pm 10.6 7.1 5.3 70 2.4 S 13 15 7 8 1024.7 1024.7 0.2
27/10:00pm 11.2 7.3 5.3 67 2.7 S 15 20 8 11 1024.6 1024.6 0.2
27/09:30pm 11.2 6.8 5.0 65 2.8 S 17 22 9 12 1024.3 1024.3 0.2
27/09:00pm 12.0 7.6 5.0 62 3.2 S 17 26 9 14 1024.2 1024.2 0.2
27/08:30pm 12.4 7.8 5.5 63 3.2 S 19 26 10 14 1024.2 1024.2 0.2
27/08:00pm 12.7 7.2 6.1 64 3.1 SSE 24 35 13 19 1023.8 1023.8 0.2
27/07:30pm 13.4 6.8 6.2 61 3.4 SSE 30 39 16 21 1023.6 1023.6 0.2
27/07:00pm 13.7 6.5 5.9 59 3.7 SSE 33 41 18 22 1023.3 1023.3 0.2
27/06:30pm 14.3 7.7 6.1 58 3.9 SSE 30 39 16 21 1023.1 1023.1 0.2
27/06:00pm 14.5 7.6 7.4 62 3.5 SE 33 46 18 25 1022.9 1022.9 0.2
27/05:30pm 14.5 6.4 6.9 60 3.7 SSE 39 52 21 28 1022.7 1022.7 0.2
27/05:00pm 14.9 6.5 7.4 61 3.7 SSE 41 52 22 28 1022.5 1022.5 0.2
27/04:30pm 16.7 8.4 4.0 43 5.9 SSE 37 48 20 26 1022.8 1022.8 0.2
27/04:00pm 17.4 9.3 3.3 39 6.5 S 35 43 19 23 1022.7 1022.7 0.2
27/03:30pm 16.7 9.5 7.5 54 4.6 SE 35 46 19 25 1022.6 1022.6 0.2
27/03:00pm 17.6 9.8 3.0 37 6.7 S 33 41 18 22 1022.8 1022.8 0.2
27/02:30pm 18.1 10.7 1.9 33 7.3 S 30 44 16 24 1022.9 1022.9 0.2
27/02:00pm 17.8 10.6 1.0 32 7.4 SSW 28 39 15 21 1022.7 1022.7 0.2
27/01:45pm 17.6 10.1 1.0 32 7.3 SSW 30 48 16 26 1022.7 1022.7 0.2
27/01:30pm 18.5 10.7 1.6 32 7.6 SSW 32 46 17 25 1022.9 1022.9 0.2
27/01:00pm 17.4 9.5 2.0 35 6.9 S 33 46 18 25 1022.9 1022.9 0.2
27/12:30pm 16.9 9.8 1.5 35 6.8 SSW 28 39 15 21 1023.1 1023.1 0.2
27/12:00pm 16.5 9.0 1.2 35 6.7 SSW 30 41 16 22 1023.3 1023.3 0.2
27/11:30am 16.2 8.7 1.0 35 6.6 SW 30 44 16 24 1023.3 1023.3 0.2
27/11:00am 16.7 8.7 1.5 36 6.7 SSW 33 46 18 25 1023.4 1023.4 0.2
27/10:30am 15.6 7.8 1.7 39 6.1 SSW 32 44 17 24 1023.5 1023.5 0.2
27/10:00am 14.5 6.4 1.2 40 5.7 SSW 33 46 18 25 1023.5 1023.5 0.2
27/09:54am 14.6 7.5 1.4 40 5.7 SSW 28 46 15 25 1023.5 1023.5 0.0
27/09:49am 15.0 8.0 1.7 40 5.8 SSW 28 37 15 20 1023.6 1023.6 0.0
27/09:30am 14.1 9.7 0.6 39 5.7 W 13 19 7 10 1023.7 1023.7 0.0
27/09:00am 13.8 9.2 1.5 43 5.3 NNW 15 20 8 11 1023.5 1023.5 0.0
27/08:30am 14.3 8.3 0.9 40 5.7 SW 22 32 12 17 1023.4 1023.4 0.0
27/08:00am 13.1 8.7 0.4 42 5.3 W 13 26 7 14 1023.5 1023.5 0.0
27/07:30am 11.2 8.4 2.3 54 3.8 NNW 6 9 3 5 1023.3 1023.3 0.0
27/07:00am 11.5 7.2 1.2 49 4.3 W 13 17 7 9 1022.8 1022.8 0.0
27/06:30am 10.6 6.0 1.5 53 3.8 WNW 15 17 8 9 1022.5 1022.5 0.0
27/06:00am 10.4 6.2 1.8 55 3.6 NW 13 17 7 9 1022.3 1022.3 0.0
27/05:30am 10.4 7.1 2.4 57 3.4 WNW 9 13 5 7 1022.1 1022.1 0.0
27/05:00am 11.2 5.6 0.1 46 4.5 WSW 19 33 10 18 1021.6 1021.6 0.0
27/04:30am 11.2 5.6 0.1 46 4.5 W 19 24 10 13 1021.3 1021.3 0.0
27/04:00am 11.3 4.4 0.3 46 4.5 WSW 26 35 14 19 1021.0 1021.0 0.0
27/03:30am 10.9 6.2 1.0 50 4.1 WSW 15 24 8 13 1020.9 1020.9 0.0
27/03:00am 10.8 5.1 0.8 50 4.1 WSW 20 28 11 15 1020.9 1020.9 0.0
27/02:30am 11.5 5.1 0.9 48 4.4 SW 24 33 13 18 1021.2 1021.2 0.0
27/02:00am 11.7 5.9 0.2 45 4.7 WSW 20 35 11 19 1021.1 1021.1 0.0
27/01:30am 11.5 6.8 0.9 48 4.4 W 15 24 8 13 1021.1 1021.1 0.0
27/01:00am 11.2 6.5 0.8 48 4.3 WSW 15 19 8 10 1021.1 1021.1 0.0
27/12:30am 11.2 7.3 1.4 51 4.1 W 11 26 6 14 1021.2 1021.2 0.0
27/12:00am 11.6 8.0 0.7 47 4.5 W 9 15 5 8 1021.1 1021.1 0.0
 
Date/Time
EDT
Tmp

°C
App
Tmp
°C
Dew
Point
°C
Rel
Hum
%
Delta-T

°C
Wind Press
QNH
hPa
Press
MSL
hPa
Rain
since
9 am
mm
Dir
 
Spd
km/h
Gust
km/h
Spd
kts
Gust
kts
26/11:30pm 11.1 6.4 1.0 50 4.2 W 15 19 8 10 1021.0 1021.0 0.0
26/11:00pm 11.6 5.5 0.7 47 4.5 WSW 22 30 12 16 1020.9 1020.9 0.0
26/10:30pm 11.7 5.9 0.2 45 4.7 W 20 28 11 15 1020.8 1020.8 0.0
26/10:00pm 11.4 6.3 0.8 48 4.4 W 17 22 9 12 1020.8 1020.8 0.0
26/09:30pm 11.4 7.1 1.1 49 4.3 W 13 17 7 9 1020.3 1020.3 0.0
26/09:00pm 12.0 6.0 1.3 48 4.5 SW 22 32 12 17 1019.9 1019.9 0.0
26/08:30pm 12.6 7.1 1.6 47 4.7 SW 20 30 11 16 1019.7 1019.7 0.0
26/08:00pm 13.2 7.4 2.5 48 4.7 SW 22 30 12 16 1019.0 1019.0 0.0
26/07:30pm 13.7 7.5 2.0 45 5.1 SW 24 33 13 18 1018.6 1018.6 0.0
26/07:00pm 14.4 8.0 0.8 39 5.8 WSW 24 37 13 20 1018.1 1018.1 0.0
26/06:30pm 14.7 8.5 2.2 43 5.5 SW 24 39 13 21 1017.7 1017.7 0.0
26/06:00pm 15.4 8.4 1.8 40 6.0 WSW 28 39 15 21 1017.1 1017.1 0.0
26/05:30pm 15.7 8.4 2.2 40 6.0 WSW 30 39 16 21 1017.0 1017.0 0.0
26/05:00pm 15.8 10.1 3.0 42 5.8 SW 22 39 12 21 1016.7 1016.7 0.0
26/04:30pm 15.7 10.1 3.2 43 5.7 SW 22 30 12 16 1016.6 1016.6 0.0
26/04:00pm 15.7 9.3 3.2 43 5.7 SW 26 37 14 20 1016.2 1016.2 0.0
26/03:30pm 14.6 7.9 5.8 55 4.2 SSW 30 41 16 22 1016.2 1016.2 0.0
26/03:00pm 16.0 9.9 2.7 41 6.0 WSW 24 41 13 22 1016.0 1016.0 0.0
26/02:30pm 15.4 8.4 3.9 46 5.3 SW 30 39 16 21 1016.0 1016.0 0.0
26/02:00pm 15.6 9.3 5.5 51 4.8 S 28 35 15 19 1015.6 1015.6 0.0
26/01:30pm 15.7 10.8 5.2 49 5.0 SW 20 32 11 17 1015.6 1015.6 0.0
26/01:00pm 15.8 10.3 2.1 39 6.1 SW 20 32 11 17 1015.3 1015.3 0.0
26/12:37pm 16.5 8.6 2.2 38 6.4 WSW 33 52 18 28 1015.2 1015.2 0.0
26/12:30pm 16.5 9.9 2.2 38 6.4 SW 26 44 14 24 1015.3 1015.3 0.0
26/12:00pm 14.3 8.2 4.9 53 4.4 SW 26 33 14 18 1015.1 1015.1 0.0
26/11:30am 13.6 6.9 3.6 51 4.5 SW 28 41 15 22 1014.7 1014.7 0.0
26/11:00am 14.6 6.9 2.1 43 5.5 SW 32 56 17 30 1014.7 1014.7 0.0
26/10:49am 14.8 7.8 2.1 42 5.6 SW 28 48 15 26 1014.6 1014.6 0.0
26/10:30am 13.8 7.8 3.1 48 4.8 SW 24 35 13 19 1014.3 1014.3 0.0
26/10:00am 14.9 9.0 1.6 40 5.8 WSW 22 33 12 18 1013.7 1013.7 0.0
26/09:30am 14.0 8.4 0.9 41 5.6 WNW 20 28 11 15 1013.3 1013.3 0.0
26/09:00am 13.6 7.8 2.2 46 5.0 NW 22 32 12 17 1012.9 1012.9 0.2
26/08:30am 13.5 8.0 2.0 45 5.0 NW 20 39 11 21 1012.6 1012.6 0.2
26/08:00am 13.4 8.0 2.2 46 4.9 NW 20 30 11 16 1012.2 1012.2 0.2
26/07:30am 12.7 7.1 1.2 45 4.9 WNW 20 32 11 17 1012.0 1012.0 0.2
26/07:00am 12.4 7.7 1.0 45 4.8 NW 15 24 8 13 1011.4 1011.4 0.2
26/06:30am 13.0 8.0 1.3 45 5.0 NW 17 22 9 12 1011.0 1011.0 0.2
26/06:00am 12.7 4.7 0.2 42 5.2 W 32 39 17 21 1010.4 1010.4 0.2
26/05:36am 12.5 5.1 1.8 48 4.6 WSW 30 48 16 26 1009.8 1009.8 0.2
26/05:30am 11.6 7.6 5.1 64 3.0 SSE 15 33 8 18 1010.0 1010.0 0.2
26/05:00am 11.0 8.0 7.5 79 1.7 S 13 17 7 9 1009.3 1009.3 0.2
26/04:30am 10.3 8.6 8.3 87 1.0 ENE 7 11 4 6 1008.9 1008.9 0.2
26/04:00am 11.6 11.0 9.0 84 1.3 SSW 2 7 1 4 1009.1 1009.1 0.2
26/03:30am 12.2 9.0 7.0 70 2.5 S 13 19 7 10 1008.7 1008.7 0.2
26/03:00am 12.5 8.7 5.9 64 3.1 WNW 15 19 8 10 1008.4 1008.4 0.2
26/02:30am 12.3 7.4 6.7 68 2.7 WNW 22 32 12 17 1008.7 1008.7 0.2
26/02:00am 13.0 6.3 5.5 60 3.5 NW 30 37 16 20 1008.5 1008.5 0.2
26/01:30am 13.0 7.9 5.8 61 3.4 NNW 22 33 12 18 1008.7 1008.7 0.2
26/01:00am 12.9 8.0 4.9 58 3.7 NNW 20 32 11 17 1009.1 1009.1 0.2
26/12:30am 12.8 8.8 4.8 58 3.7 NNW 15 22 8 12 1009.7 1009.7 0.2
26/12:00am 12.7 7.9 4.6 58 3.7 NNW 19 26 10 14 1010.3 1010.3 0.2
 
Date/Time
EDT
Tmp

°C
App
Tmp
°C
Dew
Point
°C
Rel
Hum
%
Delta-T

°C
Wind Press
QNH
hPa
Press
MSL
hPa
Rain
since
9 am
mm
Dir
 
Spd
km/h
Gust
km/h
Spd
kts
Gust
kts
25/11:30pm 12.6 8.2 4.5 58 3.7 NNW 17 24 9 13 1010.8 1010.8 0.2
25/11:00pm 12.6 8.1 4.0 56 3.9 NNW 17 26 9 14 1011.0 1011.0 0.2
25/10:30pm 12.7 8.1 3.5 53 4.1 N 17 28 9 15 1011.3 1011.3 0.2
25/10:00pm 13.0 8.6 2.8 50 4.5 NNW 15 24 8 13 1011.4 1011.4 0.2
25/09:30pm 13.1 7.6 2.1 47 4.8 NW 20 33 11 18 1011.4 1011.4 0.2
25/09:00pm 13.1 7.6 0.8 43 5.2 NNW 19 26 10 14 1011.3 1011.3 0.2
25/08:30pm 13.5 6.9 -0.6 38 5.8 NW 24 37 13 20 1011.0 1011.0 0.2
25/08:00pm 13.7 7.9 0.1 39 5.7 NW 20 39 11 21 1010.7 1010.7 0.2
25/07:30pm 14.0 5.8 -0.8 36 6.1 W 32 44 17 24 1010.8 1010.8 0.2
25/07:00pm 14.2 6.0 0.6 39 5.8 WNW 33 52 18 28 1010.3 1010.3 0.2
25/06:37pm 14.3 6.6 2.3 44 5.3 WNW 32 57 17 31 1010.3 1010.3 0.2
25/06:30pm 14.5 6.7 1.7 42 5.6 WNW 32 39 17 21 1010.0 1010.0 0.2
25/06:00pm 14.7 6.9 1.4 40 5.8 WNW 32 37 17 20 1009.4 1009.4 0.2
25/05:30pm 15.2 6.5 -0.2 35 6.5 WNW 35 59 19 32 1009.4 1009.4 0.2
25/05:07pm 15.4 7.0 1.5 39 6.1 W 35 57 19 31 1009.2 1009.2 0.2
25/05:00pm 15.6 6.4 1.2 37 6.3 WNW 39 54 21 29 1009.2 1009.2 0.2
25/04:30pm 15.8 4.9 1.2 37 6.4 W 48 72 26 39 1008.7 1008.7 0.2
25/04:26pm 15.7 4.2 2.3 40 6.0 WNW 52 67 28 36 1008.6 1008.6 0.2
25/04:00pm 16.7 9.8 2.3 38 6.5 WNW 28 48 15 26 1008.0 1008.0 0.2
25/03:57pm 16.6 9.3 2.2 38 6.5 WNW 30 48 16 26 1008.0 1008.0 0.2
25/03:30pm 17.8 10.5 4.3 40 6.4 W 32 48 17 26 1008.1 1008.1 0.2
25/03:08pm 16.4 9.7 3.7 42 5.9 W 28 59 15 32 1007.9 1007.9 0.2
25/03:00pm 16.6 10.3 3.7 42 6.0 W 26 41 14 22 1007.8 1007.8 0.2
25/02:43pm 16.6 9.9 3.7 42 6.0 WNW 28 50 15 27 1007.7 1007.7 0.2
25/02:30pm 16.4 10.3 2.8 40 6.2 WNW 24 35 13 19 1007.6 1007.6 0.2
25/02:00pm 16.6 8.9 3.4 41 6.1 NW 33 48 18 26 1007.2 1007.2 0.2
25/01:44pm 16.8 9.2 2.8 39 6.4 WNW 32 52 17 28 1006.9 1006.9 0.2
25/01:30pm 18.4 10.3 3.2 36 7.1 WNW 35 52 19 28 1006.8 1006.8 0.2
25/01:02pm 17.9 9.9 0.7 31 7.6 WNW 32 50 17 27 1006.4 1006.4 0.2
25/01:00pm 18.5 10.5 1.8 32 7.6 WNW 33 50 18 27 1006.5 1006.5 0.2
25/12:33pm 18.2 9.9 1.9 33 7.4 W 35 54 19 29 1006.6 1006.6 0.2
25/12:30pm 18.2 9.0 1.2 32 7.6 W 39 54 21 29 1006.6 1006.6 0.2
25/12:10pm 16.2 9.1 1.2 36 6.6 W 28 46 15 25 1006.6 1006.6 0.0
25/12:00pm 15.8 11.7 2.2 40 6.1 SSW 13 20 7 11 1006.7 1006.7 0.0
25/11:30am 15.4 9.5 1.5 39 6.1 SW 22 37 12 20 1006.6 1006.6 0.0
25/11:00am 17.4 10.8 1.9 35 7.0 WNW 26 52 14 28 1006.3 1006.3 0.0
25/10:30am 16.9 9.1 1.4 35 6.9 WNW 32 41 17 22 1005.9 1005.9 0.0
25/10:00am 15.6 7.6 1.5 38 6.2 WNW 33 48 18 26 1005.6 1005.6 0.0

Latest Capital City Observations: Canberra | Sydney | Melbourne | Brisbane | Adelaide | Perth | Hobart | Darwin

Other Formats:

Comma delimited format used in spreadsheet applications
http://www.bom.gov.au/fwo/IDT60901/IDT60901.94975.axf

JavaScript Object Notation format (JSON) in row-major order
http://www.bom.gov.au/fwo/IDT60901/IDT60901.94975.json